Terminal Aerodrome Forecast
Issued by NWS

Current Version | Previous Version | Graphics & Text | Print | Product List | Glossary On
Versions: 1 2 3 4 5 6 7 8 9 10 11 12 13 14 15 16 17 18 19 20 21 22 23 24 25
000
FTUS41 KRLX 301100
TAFCKB
TAF
KCKB 301122Z 3012/3112 00000KT 6SM BR SCT020
     FM301300 VRB03KT P6SM SCT025
     FM301700 24006KT P6SM BKN080
     FM310000 00000KT P6SM BKN090
     FM310600 00000KT 4SM BR SCT090=

USA.gov is the U.S. government's official web portal to all federal, state and local government web resources and services.